createdAt,value
2022-08-28T00:00:43.535Z,23.73
2022-08-28T00:01:43.526Z,23.73
2022-08-28T00:02:43.572Z,23.73
2022-08-28T00:03:43.524Z,23.75
2022-08-28T00:04:43.566Z,23.73
2022-08-28T00:05:43.478Z,23.73
2022-08-28T00:06:43.466Z,23.72
2022-08-28T00:07:47.680Z,23.72
2022-08-28T00:08:43.467Z,23.72
2022-08-28T00:09:43.435Z,23.73
2022-08-28T00:10:43.442Z,23.72
2022-08-28T00:11:43.415Z,23.73
2022-08-28T00:12:43.401Z,23.72
2022-08-28T00:13:43.411Z,23.72
2022-08-28T00:14:43.378Z,23.73
2022-08-28T00:15:43.437Z,23.72
2022-08-28T00:16:43.357Z,23.72
2022-08-28T00:17:43.348Z,23.73
2022-08-28T00:18:43.358Z,23.73
2022-08-28T00:19:43.325Z,23.73
2022-08-28T00:20:43.314Z,23.72
2022-08-28T00:21:43.308Z,23.73
2022-08-28T00:22:43.292Z,23.73
2022-08-28T00:23:43.449Z,23.72
2022-08-28T00:24:43.290Z,23.72
2022-08-28T00:25:43.259Z,23.73
2022-08-28T00:26:43.248Z,23.73
2022-08-28T00:27:43.237Z,23.72
2022-08-28T00:28:43.227Z,23.73
2022-08-28T00:29:43.238Z,23.72
2022-08-28T00:30:43.205Z,23.73
2022-08-28T00:31:43.249Z,23.72
2022-08-28T00:32:43.207Z,23.72
2022-08-28T00:33:43.172Z,23.73
2022-08-28T00:34:43.163Z,23.72
2022-08-28T00:35:43.149Z,23.72
2022-08-28T00:36:43.141Z,23.73
2022-08-28T00:37:43.150Z,23.72
2022-08-28T00:38:43.119Z,23.72
2022-08-28T00:39:43.108Z,23.72
2022-08-28T00:40:43.209Z,23.72
2022-08-28T00:41:43.105Z,23.72
2022-08-28T00:42:43.074Z,23.72
2022-08-28T00:43:43.064Z,23.72
2022-08-28T00:44:43.054Z,23.73
2022-08-28T00:45:43.065Z,23.73
2022-08-28T00:46:43.087Z,23.75
2022-08-28T00:47:43.018Z,23.72
2022-08-28T00:48:43.008Z,23.72
2022-08-28T00:49:42.997Z,23.70
2022-08-28T00:50:43.010Z,23.72
2022-08-28T00:51:42.975Z,23.72
2022-08-28T00:52:42.987Z,23.72
2022-08-28T00:53:42.953Z,23.72
2022-08-28T00:54:45.673Z,23.70
2022-08-28T00:55:43.935Z,23.70
2022-08-28T00:56:42.925Z,23.72
2022-08-28T00:57:42.936Z,23.70
2022-08-28T00:58:42.901Z,23.72
2022-08-28T00:59:42.918Z,23.70
2022-08-28T01:00:42.884Z,23.72
2022-08-28T01:01:42.908Z,23.72
2022-08-28T01:02:42.936Z,23.72
2022-08-28T01:03:42.851Z,23.72
2022-08-28T01:04:42.838Z,23.72
2022-08-28T01:05:42.827Z,23.72
2022-08-28T01:06:42.815Z,23.70
2022-08-28T01:07:42.834Z,23.72
2022-08-28T01:08:42.818Z,23.72
2022-08-28T01:09:42.785Z,23.72
2022-08-28T01:10:42.772Z,23.72
2022-08-28T01:11:42.762Z,23.70
2022-08-28T01:12:42.749Z,23.72
2022-08-28T01:13:42.768Z,23.72
2022-08-28T01:14:42.728Z,23.70
2022-08-28T01:15:42.787Z,23.69
2022-08-28T01:16:42.706Z,23.70
2022-08-28T01:17:43.195Z,23.70
2022-08-28T01:18:42.714Z,23.70
2022-08-28T01:19:42.700Z,23.70
2022-08-28T01:20:42.662Z,23.70
2022-08-28T01:21:42.653Z,23.69
2022-08-28T01:22:42.640Z,23.69
2022-08-28T01:23:42.630Z,23.69
2022-08-28T01:24:42.665Z,23.70
2022-08-28T01:25:42.608Z,23.70
2022-08-28T01:26:42.596Z,23.70
2022-08-28T01:27:42.590Z,23.70
2022-08-28T01:28:42.574Z,23.69
2022-08-28T01:29:42.563Z,23.69
2022-08-28T01:30:43.627Z,23.69
2022-08-28T01:31:42.543Z,23.69
2022-08-28T01:32:42.534Z,23.69
2022-08-28T01:33:42.800Z,23.70
2022-08-28T01:34:42.510Z,23.70
2022-08-28T01:35:42.541Z,23.69
2022-08-28T01:36:42.491Z,23.69
2022-08-28T01:37:42.480Z,23.69
2022-08-28T01:38:42.466Z,23.69
2022-08-28T01:39:42.460Z,23.70
2022-08-28T01:40:42.472Z,23.68
2022-08-28T01:41:42.435Z,23.68
2022-08-28T01:42:42.423Z,23.69
2022-08-28T01:43:42.413Z,23.70
2022-08-28T01:44:42.401Z,23.69
2022-08-28T01:45:42.425Z,23.68
2022-08-28T01:46:42.416Z,23.69
2022-08-28T01:47:42.371Z,23.70
2022-08-28T01:48:42.357Z,23.69
2022-08-28T01:49:42.348Z,23.68
2022-08-28T01:50:42.365Z,23.69
2022-08-28T01:51:42.358Z,23.69
2022-08-28T01:52:42.315Z,23.68
2022-08-28T01:53:45.194Z,23.69
2022-08-28T01:54:42.296Z,23.68
2022-08-28T01:55:42.283Z,23.68
2022-08-28T01:56:42.299Z,23.69
2022-08-28T01:57:42.289Z,23.69
2022-08-28T01:58:42.252Z,23.68
2022-08-28T01:59:42.239Z,23.68
2022-08-28T02:00:42.228Z,23.69
2022-08-28T02:01:42.255Z,23.69
2022-08-28T02:02:42.236Z,23.69
2022-08-28T02:03:42.221Z,23.69
2022-08-28T02:04:44.986Z,23.68
2022-08-28T02:05:43.172Z,23.68
2022-08-28T02:06:42.168Z,23.69
2022-08-28T02:07:42.154Z,23.69
2022-08-28T02:08:42.170Z,23.69
2022-08-28T02:09:42.130Z,23.68
2022-08-28T02:10:42.120Z,23.68
2022-08-28T02:11:42.106Z,23.69
2022-08-28T02:12:42.101Z,23.68
2022-08-28T02:13:42.115Z,23.68
2022-08-28T02:14:42.076Z,23.68
2022-08-28T02:15:42.100Z,23.68
2022-08-28T02:16:42.056Z,23.68
2022-08-28T02:17:42.043Z,23.68
2022-08-28T02:18:42.062Z,23.68
2022-08-28T02:19:42.022Z,23.69
2022-08-28T02:20:42.035Z,23.68
2022-08-28T02:21:42.016Z,23.68
2022-08-28T02:22:41.993Z,23.68
2022-08-28T02:23:41.981Z,23.68
2022-08-28T02:24:41.969Z,23.69
2022-08-28T02:25:41.984Z,23.68
2022-08-28T02:26:41.972Z,23.69
2022-08-28T02:27:41.935Z,23.69
2022-08-28T02:28:41.927Z,23.68
2022-08-28T02:29:41.914Z,23.68
2022-08-28T02:30:41.932Z,23.68
2022-08-28T02:31:41.921Z,23.69
2022-08-28T02:32:41.884Z,23.68
2022-08-28T02:33:41.871Z,23.68
2022-08-28T02:34:41.863Z,23.68
2022-08-28T02:35:41.848Z,23.66
2022-08-28T02:36:41.872Z,23.66
2022-08-28T02:37:41.828Z,23.68
2022-08-28T02:38:41.844Z,23.68
2022-08-28T02:39:41.807Z,23.68
2022-08-28T02:40:41.798Z,23.68
2022-08-28T02:41:41.785Z,23.66
2022-08-28T02:42:41.777Z,23.69
2022-08-28T02:43:41.792Z,23.68
2022-08-28T02:44:41.752Z,23.68
2022-08-28T02:45:41.742Z,23.66
2022-08-28T02:46:41.734Z,23.68
2022-08-28T02:47:41.723Z,23.68
2022-08-28T02:48:41.742Z,23.66
2022-08-28T02:49:41.734Z,23.66
2022-08-28T02:50:41.689Z,23.68
2022-08-28T02:51:41.678Z,23.68
2022-08-28T02:52:41.669Z,23.68
2022-08-28T02:53:41.656Z,23.68
2022-08-28T02:54:41.676Z,23.68
2022-08-28T02:55:41.635Z,23.69
2022-08-28T02:56:41.628Z,23.68
2022-08-28T02:57:41.614Z,23.68
2022-08-28T02:58:41.605Z,23.68
2022-08-28T02:59:41.640Z,23.68
2022-08-28T03:00:41.585Z,23.68
2022-08-28T03:01:41.616Z,23.68
2022-08-28T03:02:41.637Z,23.68
2022-08-28T03:03:41.758Z,23.68
2022-08-28T03:04:41.540Z,23.68
2022-08-28T03:05:41.557Z,23.66
2022-08-28T03:06:41.521Z,23.66
2022-08-28T03:07:41.507Z,23.68
2022-08-28T03:08:41.501Z,23.66
2022-08-28T03:09:41.485Z,23.68
2022-08-28T03:10:41.505Z,23.66
2022-08-28T03:11:41.474Z,23.68
2022-08-28T03:12:41.459Z,23.68
2022-08-28T03:13:41.446Z,23.66
2022-08-28T03:14:41.436Z,23.65
2022-08-28T03:15:41.451Z,23.66
2022-08-28T03:16:41.525Z,23.66
2022-08-28T03:17:41.403Z,23.68
2022-08-28T03:18:41.392Z,23.68
2022-08-28T03:19:41.380Z,23.66
2022-08-28T03:20:41.372Z,23.66
2022-08-28T03:21:41.384Z,23.66
2022-08-28T03:22:41.348Z,23.66
2022-08-28T03:23:41.339Z,23.65
2022-08-28T03:24:41.325Z,23.66
2022-08-28T03:25:41.315Z,23.66
2022-08-28T03:26:41.352Z,23.66
2022-08-28T03:27:41.292Z,23.66
2022-08-28T03:28:41.287Z,23.66
2022-08-28T03:29:41.271Z,23.66
2022-08-28T03:30:41.335Z,23.65
2022-08-28T03:31:41.249Z,23.66
2022-08-28T03:32:41.265Z,23.68
2022-08-28T03:33:42.667Z,23.65
2022-08-28T03:34:41.220Z,23.66
2022-08-28T03:35:41.212Z,23.65
2022-08-28T03:36:41.196Z,23.65
2022-08-28T03:37:41.212Z,23.66
2022-08-28T03:38:41.179Z,23.65
2022-08-28T03:39:41.166Z,23.66
2022-08-28T03:40:41.206Z,23.65
2022-08-28T03:41:41.152Z,23.65
2022-08-28T03:42:41.163Z,23.63
2022-08-28T03:43:41.151Z,23.65
2022-08-28T03:44:41.114Z,23.63
2022-08-28T03:45:41.200Z,23.65
2022-08-28T03:46:41.091Z,23.65
2022-08-28T03:47:41.082Z,23.65
2022-08-28T03:48:42.229Z,23.65
2022-08-28T03:49:41.059Z,23.65
2022-08-28T03:50:41.058Z,23.65
2022-08-28T03:51:41.040Z,23.63
2022-08-28T03:52:41.032Z,23.65
2022-08-28T03:53:41.061Z,23.65
2022-08-28T03:54:41.007Z,23.65
2022-08-28T03:55:40.993Z,23.66
2022-08-28T03:56:40.983Z,23.63
2022-08-28T03:57:40.971Z,23.65
2022-08-28T03:58:40.962Z,23.65
2022-08-28T03:59:40.978Z,23.65
2022-08-28T04:00:40.940Z,23.63
2022-08-28T04:01:40.996Z,23.63
2022-08-28T04:02:40.923Z,23.65
2022-08-28T04:03:41.022Z,23.63
2022-08-28T04:04:40.927Z,23.63
2022-08-28T04:05:40.887Z,23.63
2022-08-28T04:06:40.878Z,23.61
2022-08-28T04:07:40.866Z,23.63
2022-08-28T04:08:40.858Z,23.65
2022-08-28T04:09:40.871Z,23.63
2022-08-28T04:10:40.860Z,23.65
2022-08-28T04:11:40.824Z,23.65
2022-08-28T04:12:40.816Z,23.65
2022-08-28T04:13:40.801Z,23.63
2022-08-28T04:14:40.794Z,23.63
2022-08-28T04:15:40.809Z,23.63
2022-08-28T04:16:40.822Z,23.63
2022-08-28T04:17:40.757Z,23.63
2022-08-28T04:18:40.749Z,23.65
2022-08-28T04:19:40.736Z,23.63
2022-08-28T04:20:40.753Z,23.63
2022-08-28T04:21:40.715Z,23.65
2022-08-28T04:22:40.704Z,23.61
2022-08-28T04:23:40.702Z,23.61
2022-08-28T04:24:40.685Z,23.61
2022-08-28T04:25:40.698Z,23.63
2022-08-28T04:26:40.687Z,23.63
2022-08-28T04:27:40.650Z,23.61
2022-08-28T04:28:40.640Z,23.65
2022-08-28T04:29:40.628Z,23.63
2022-08-28T04:30:40.621Z,23.63
2022-08-28T04:31:40.694Z,23.61
2022-08-28T04:32:40.598Z,23.63
2022-08-28T04:33:40.587Z,23.63
2022-08-28T04:34:40.579Z,23.63
2022-08-28T04:35:40.566Z,23.63
2022-08-28T04:36:40.584Z,23.61
2022-08-28T04:37:40.569Z,23.63
2022-08-28T04:38:43.941Z,23.63
2022-08-28T04:39:40.520Z,23.63
2022-08-28T04:40:40.570Z,23.63
2022-08-28T04:41:40.510Z,23.61
2022-08-28T04:42:40.518Z,23.63
2022-08-28T04:43:40.480Z,23.63
2022-08-28T04:44:40.468Z,23.61
2022-08-28T04:45:40.513Z,23.63
2022-08-28T04:46:40.446Z,23.63
2022-08-28T04:47:40.484Z,23.63
2022-08-28T04:48:40.427Z,23.63
2022-08-28T04:49:40.418Z,23.63
2022-08-28T04:50:40.404Z,23.63
2022-08-28T04:51:42.252Z,23.63
2022-08-28T04:52:40.382Z,23.63
2022-08-28T04:53:40.400Z,23.63
2022-08-28T04:54:40.361Z,23.61
2022-08-28T04:55:54.375Z,23.61
2022-08-28T04:56:41.340Z,23.63
2022-08-28T04:57:40.333Z,23.61
2022-08-28T04:58:40.346Z,23.63
2022-08-28T04:59:40.311Z,23.63
2022-08-28T05:00:40.336Z,23.61
2022-08-28T05:01:40.288Z,23.63
2022-08-28T05:02:40.358Z,23.63
2022-08-28T05:03:40.293Z,23.63
2022-08-28T05:04:40.254Z,23.61
2022-08-28T05:05:40.247Z,23.61
2022-08-28T05:06:40.233Z,23.61
2022-08-28T05:07:40.225Z,23.60
2022-08-28T05:08:40.240Z,23.63
2022-08-28T05:09:40.233Z,23.61
2022-08-28T05:10:40.201Z,23.61
2022-08-28T05:11:40.183Z,23.60
2022-08-28T05:12:40.171Z,23.61
2022-08-28T05:13:40.166Z,23.61
2022-08-28T05:14:40.176Z,23.61
2022-08-28T05:15:40.137Z,23.61
2022-08-28T05:16:40.213Z,23.61
2022-08-28T05:17:40.121Z,23.61
2022-08-28T05:18:40.106Z,23.61
2022-08-28T05:19:40.125Z,23.61
2022-08-28T05:20:40.111Z,23.61
2022-08-28T05:21:40.079Z,23.61
2022-08-28T05:22:40.063Z,23.61
2022-08-28T05:23:40.054Z,23.61
2022-08-28T05:24:40.044Z,23.61
2022-08-28T05:25:40.059Z,23.61
2022-08-28T05:26:40.278Z,23.61
2022-08-28T05:27:40.011Z,23.63
2022-08-28T05:28:39.997Z,23.61
2022-08-28T05:29:39.988Z,23.61
2022-08-28T05:30:40.003Z,23.63
2022-08-28T05:31:40.076Z,23.60
2022-08-28T05:32:39.956Z,23.61
2022-08-28T05:33:39.944Z,23.61
2022-08-28T05:34:39.933Z,23.63
2022-08-28T05:35:39.925Z,23.61
2022-08-28T05:36:39.941Z,23.61
2022-08-28T05:37:39.902Z,23.65
2022-08-28T05:38:39.890Z,23.60
2022-08-28T05:39:39.880Z,23.61
2022-08-28T05:40:39.868Z,23.61
2022-08-28T05:41:39.907Z,23.63
2022-08-28T05:42:39.847Z,23.60
2022-08-28T05:43:39.839Z,23.61
2022-08-28T05:44:39.827Z,23.61
2022-08-28T05:45:39.839Z,23.61
2022-08-28T05:46:39.805Z,23.61
2022-08-28T05:47:39.821Z,23.60
2022-08-28T05:48:39.794Z,23.60
2022-08-28T05:49:39.773Z,23.61
2022-08-28T05:50:40.753Z,23.60
2022-08-28T05:51:40.752Z,23.60
2022-08-28T05:52:39.765Z,23.60
2022-08-28T05:53:39.729Z,23.61
2022-08-28T05:54:39.719Z,23.60
2022-08-28T05:55:39.709Z,23.61
2022-08-28T05:56:39.696Z,23.60
2022-08-28T05:57:39.717Z,23.61
2022-08-28T05:58:39.701Z,23.60
2022-08-28T05:59:39.664Z,23.60
2022-08-28T06:00:39.655Z,23.61
2022-08-28T06:01:39.700Z,23.60
2022-08-28T06:02:39.631Z,23.60
2022-08-28T06:03:39.738Z,23.60
2022-08-28T06:04:39.667Z,23.58
2022-08-28T06:05:39.605Z,23.61
2022-08-28T06:06:39.589Z,23.58
2022-08-28T06:07:39.578Z,23.60
2022-08-28T06:08:39.594Z,23.60
2022-08-28T06:09:40.583Z,23.60
2022-08-28T06:10:39.547Z,23.58
2022-08-28T06:11:44.608Z,23.58
2022-08-28T06:12:40.524Z,23.60
2022-08-28T06:13:39.517Z,23.61
2022-08-28T06:14:39.530Z,23.60
2022-08-28T06:15:39.496Z,23.60
2022-08-28T06:16:39.535Z,23.60
2022-08-28T06:17:39.476Z,23.58
2022-08-28T06:18:39.461Z,23.60
2022-08-28T06:19:41.692Z,23.60
2022-08-28T06:20:39.465Z,23.60
2022-08-28T06:21:39.429Z,23.60
2022-08-28T06:22:39.419Z,23.60
2022-08-28T06:23:39.411Z,23.60
2022-08-28T06:24:39.397Z,23.58
2022-08-28T06:25:39.415Z,23.58
2022-08-28T06:26:39.376Z,23.60
2022-08-28T06:27:39.371Z,23.58
2022-08-28T06:28:39.354Z,23.60
2022-08-28T06:29:39.347Z,23.58
2022-08-28T06:30:40.015Z,23.60
2022-08-28T06:31:39.415Z,23.60
2022-08-28T06:32:39.315Z,23.60
2022-08-28T06:33:39.306Z,23.60
2022-08-28T06:34:39.292Z,23.58
2022-08-28T06:35:39.283Z,23.58
2022-08-28T06:36:39.300Z,23.60
2022-08-28T06:37:39.263Z,23.60
2022-08-28T06:38:39.250Z,23.58
2022-08-28T06:39:39.240Z,23.58
2022-08-28T06:40:39.360Z,23.60
2022-08-28T06:41:39.267Z,23.61
2022-08-28T06:42:39.209Z,23.58
2022-08-28T06:43:39.200Z,23.60
2022-08-28T06:44:39.189Z,23.60
2022-08-28T06:45:39.214Z,23.58
2022-08-28T06:46:39.167Z,23.58
2022-08-28T06:47:39.188Z,23.60
2022-08-28T06:48:39.146Z,23.60
2022-08-28T06:49:39.135Z,23.60
2022-08-28T06:50:39.124Z,23.60
2022-08-28T06:51:39.137Z,23.60
2022-08-28T06:52:39.148Z,23.60
2022-08-28T06:53:39.097Z,23.60
2022-08-28T06:54:39.084Z,23.60
2022-08-28T06:55:39.074Z,23.60
2022-08-28T06:56:39.061Z,23.60
2022-08-28T06:57:39.053Z,23.60
2022-08-28T06:58:39.067Z,23.61
2022-08-28T06:59:39.038Z,23.60
2022-08-28T07:00:39.024Z,23.60
2022-08-28T07:01:39.071Z,23.60
2022-08-28T07:02:39.054Z,23.60
2022-08-28T07:03:42.732Z,23.60
2022-08-28T07:04:39.975Z,23.61
2022-08-28T07:05:38.969Z,23.61
2022-08-28T07:06:38.959Z,23.61
2022-08-28T07:07:38.947Z,23.60
2022-08-28T07:08:38.962Z,23.60
2022-08-28T07:09:38.948Z,23.60
2022-08-28T07:10:38.913Z,23.60
2022-08-28T07:11:38.907Z,23.61
2022-08-28T07:12:38.892Z,23.60
2022-08-28T07:13:38.887Z,23.60
2022-08-28T07:14:38.959Z,23.61
2022-08-28T07:15:38.913Z,23.60
2022-08-28T07:16:38.850Z,23.58
2022-08-28T07:17:38.844Z,23.63
2022-08-28T07:18:38.829Z,23.60
2022-08-28T07:19:38.920Z,23.61
2022-08-28T07:20:38.810Z,23.60
2022-08-28T07:21:39.359Z,23.61
2022-08-28T07:22:38.788Z,23.60
2022-08-28T07:23:38.777Z,23.58
2022-08-28T07:24:38.767Z,23.61
2022-08-28T07:25:38.787Z,23.60
2022-08-28T07:26:38.745Z,23.60
2022-08-28T07:27:38.738Z,23.60
2022-08-28T07:28:38.725Z,23.61
2022-08-28T07:29:38.718Z,23.61
2022-08-28T07:30:38.734Z,23.60
2022-08-28T07:31:38.795Z,23.61
2022-08-28T07:32:38.682Z,23.60
2022-08-28T07:33:38.673Z,23.61
2022-08-28T07:34:38.661Z,23.61
2022-08-28T07:35:38.681Z,23.61
2022-08-28T07:36:38.665Z,23.61
2022-08-28T07:37:40.603Z,23.61
2022-08-28T07:38:38.622Z,23.63
2022-08-28T07:39:38.611Z,23.60
2022-08-28T07:40:38.680Z,23.60
2022-08-28T07:41:38.615Z,23.63
2022-08-28T07:42:38.578Z,23.61
2022-08-28T07:43:38.568Z,23.61
2022-08-28T07:44:38.558Z,23.60
2022-08-28T07:45:38.586Z,23.60
2022-08-28T07:46:38.564Z,23.60
2022-08-28T07:47:38.529Z,23.61
2022-08-28T07:48:38.516Z,23.60
2022-08-28T07:49:38.508Z,23.61
2022-08-28T07:50:38.493Z,23.61
2022-08-28T07:51:38.555Z,23.63
2022-08-28T07:52:38.473Z,23.61
2022-08-28T07:53:38.464Z,23.61
2022-08-28T07:54:38.452Z,23.61
2022-08-28T07:55:38.448Z,23.60
2022-08-28T07:56:38.429Z,23.61
2022-08-28T07:57:38.469Z,23.61
2022-08-28T07:58:38.413Z,23.61
2022-08-28T07:59:38.399Z,23.60
2022-08-28T08:00:38.392Z,23.61
2022-08-28T08:01:38.407Z,23.61
2022-08-28T08:02:38.370Z,23.63
2022-08-28T08:03:38.480Z,23.61
2022-08-28T08:04:38.348Z,23.61
2022-08-28T08:05:38.337Z,23.61
2022-08-28T08:06:38.331Z,23.60
2022-08-28T08:07:38.314Z,23.60
2022-08-28T08:08:38.336Z,23.60
2022-08-28T08:09:38.297Z,23.61
2022-08-28T08:10:38.285Z,23.60
2022-08-28T08:11:38.274Z,23.60
2022-08-28T08:12:38.265Z,23.60
2022-08-28T08:13:38.283Z,23.61
2022-08-28T08:14:38.272Z,23.60
2022-08-28T08:15:38.269Z,23.61
2022-08-28T08:16:38.223Z,23.60
2022-08-28T08:17:38.212Z,23.61
2022-08-28T08:18:38.204Z,23.60
2022-08-28T08:19:38.218Z,23.61
2022-08-28T08:20:38.182Z,23.60
2022-08-28T08:21:38.173Z,23.61
2022-08-28T08:22:38.160Z,23.60
2022-08-28T08:23:38.147Z,23.60
2022-08-28T08:24:38.168Z,23.61
2022-08-28T08:25:38.128Z,23.60
2022-08-28T08:26:38.116Z,23.61
2022-08-28T08:27:42.840Z,23.60
2022-08-28T08:28:39.096Z,23.61
2022-08-28T08:29:38.087Z,23.60
2022-08-28T08:30:38.120Z,23.61
2022-08-28T08:31:38.086Z,23.60
2022-08-28T08:32:38.057Z,23.61
2022-08-28T08:33:38.041Z,23.60
2022-08-28T08:34:38.049Z,23.60
2022-08-28T08:35:38.052Z,23.60
2022-08-28T08:36:38.009Z,23.61
2022-08-28T08:37:37.999Z,23.61
2022-08-28T08:38:37.988Z,23.60
2022-08-28T08:39:37.979Z,23.60
2022-08-28T08:40:38.139Z,23.60
2022-08-28T08:41:37.959Z,23.60
2022-08-28T08:42:37.946Z,23.61
2022-08-28T08:43:37.936Z,23.58
2022-08-28T08:44:37.925Z,23.60
2022-08-28T08:45:37.914Z,23.60
2022-08-28T08:46:37.991Z,23.60
2022-08-28T08:47:37.892Z,23.58
2022-08-28T08:48:37.884Z,23.60
2022-08-28T08:49:37.871Z,23.57
2022-08-28T08:50:37.863Z,23.60
2022-08-28T08:51:37.899Z,23.58
2022-08-28T08:52:37.842Z,23.58
2022-08-28T08:53:37.831Z,23.58
2022-08-28T08:54:37.819Z,23.60
2022-08-28T08:55:37.810Z,23.60
2022-08-28T08:56:37.798Z,23.58
2022-08-28T08:57:37.818Z,23.60
2022-08-28T08:58:37.781Z,23.60
2022-08-28T08:59:37.765Z,23.60
2022-08-28T09:00:37.754Z,23.60
2022-08-28T09:01:37.791Z,23.60
2022-08-28T09:02:37.765Z,23.60
2022-08-28T09:03:37.787Z,23.60
2022-08-28T09:04:38.710Z,23.60
2022-08-28T09:05:37.701Z,23.60
2022-08-28T09:06:37.689Z,23.58
2022-08-28T09:07:37.710Z,23.60
2022-08-28T09:08:37.694Z,23.60
2022-08-28T09:09:37.662Z,23.60
2022-08-28T09:10:37.648Z,23.58
2022-08-28T09:11:37.639Z,23.60
2022-08-28T09:12:37.627Z,23.60
2022-08-28T09:13:37.644Z,23.60
2022-08-28T09:14:37.631Z,23.60
2022-08-28T09:15:37.629Z,23.60
2022-08-28T09:16:37.584Z,23.60
2022-08-28T09:17:37.577Z,23.60
2022-08-28T09:18:38.466Z,23.60
2022-08-28T09:19:37.606Z,23.60
2022-08-28T09:20:37.542Z,23.60
2022-08-28T09:21:37.535Z,23.60
2022-08-28T09:22:37.521Z,23.60
2022-08-28T09:23:37.512Z,23.60
2022-08-28T09:24:37.529Z,23.60
2022-08-28T09:25:37.518Z,23.60
2022-08-28T09:26:37.481Z,23.61
2022-08-28T09:27:39.587Z,23.61
2022-08-28T09:28:37.459Z,23.60
2022-08-28T09:29:37.461Z,23.60
2022-08-28T09:30:37.465Z,23.61
2022-08-28T09:31:37.483Z,23.60
2022-08-28T09:32:37.417Z,23.61
2022-08-28T09:33:37.411Z,23.60
2022-08-28T09:34:39.091Z,23.61
2022-08-28T09:35:37.406Z,23.60
2022-08-28T09:36:37.424Z,23.58
2022-08-28T09:37:37.367Z,23.61
2022-08-28T09:38:37.355Z,23.60
2022-08-28T09:39:37.347Z,23.61
2022-08-28T09:40:37.384Z,23.60
2022-08-28T09:41:37.372Z,23.60
2022-08-28T09:42:37.311Z,23.58
2022-08-28T09:43:37.301Z,23.60
2022-08-28T09:44:37.289Z,23.60
2022-08-28T09:45:37.283Z,23.60
2022-08-28T09:46:37.310Z,23.60
2022-08-28T09:47:46.360Z,23.61
2022-08-28T09:48:38.251Z,23.61
2022-08-28T09:49:37.237Z,23.60
2022-08-28T09:50:37.225Z,23.61
2022-08-28T09:51:37.216Z,23.60
2022-08-28T09:52:37.233Z,23.60
2022-08-28T09:53:37.196Z,23.60
2022-08-28T09:54:37.185Z,23.60
2022-08-28T09:55:37.173Z,23.60
2022-08-28T09:56:37.163Z,23.60
2022-08-28T09:57:37.185Z,23.58
2022-08-28T09:58:37.141Z,23.61
2022-08-28T09:59:37.131Z,23.61
2022-08-28T10:00:37.120Z,23.58
2022-08-28T10:01:37.167Z,23.60
2022-08-28T10:02:37.128Z,23.58
2022-08-28T10:03:37.115Z,23.60
2022-08-28T10:04:37.141Z,23.60
2022-08-28T10:05:37.070Z,23.61
2022-08-28T10:06:37.057Z,23.63
2022-08-28T10:07:37.046Z,23.60
2022-08-28T10:08:37.064Z,23.60
2022-08-28T10:09:37.029Z,23.57
2022-08-28T10:10:37.015Z,23.58
2022-08-28T10:11:37.007Z,23.58
2022-08-28T10:12:36.994Z,23.60
2022-08-28T10:13:37.012Z,23.60
2022-08-28T10:14:37.000Z,23.58
2022-08-28T10:15:41.171Z,23.58
2022-08-28T10:16:37.953Z,23.58
2022-08-28T10:17:36.945Z,23.58
2022-08-28T10:18:36.931Z,23.58
2022-08-28T10:19:36.950Z,23.58
2022-08-28T10:20:36.936Z,23.58
2022-08-28T10:21:36.902Z,23.58
2022-08-28T10:22:36.889Z,23.60
2022-08-28T10:23:36.882Z,23.58
2022-08-28T10:24:36.868Z,23.58
2022-08-28T10:25:36.885Z,23.60
2022-08-28T10:26:36.847Z,23.60
2022-08-28T10:27:36.838Z,23.58
2022-08-28T10:28:36.825Z,23.58
2022-08-28T10:29:36.818Z,23.60
2022-08-28T10:30:36.900Z,23.60
2022-08-28T10:31:36.798Z,23.60
2022-08-28T10:32:36.784Z,23.58
2022-08-28T10:33:36.774Z,23.60
2022-08-28T10:34:36.763Z,23.60
2022-08-28T10:35:36.786Z,23.58
2022-08-28T10:36:36.743Z,23.58
2022-08-28T10:37:36.732Z,23.61
2022-08-28T10:38:36.723Z,23.60
2022-08-28T10:39:36.711Z,23.58
2022-08-28T10:40:36.850Z,23.58
2022-08-28T10:41:36.718Z,23.60
2022-08-28T10:42:36.681Z,23.60
2022-08-28T10:43:36.671Z,23.58
2022-08-28T10:44:36.661Z,23.60
2022-08-28T10:45:36.650Z,23.58
2022-08-28T10:46:36.708Z,23.60
2022-08-28T10:47:36.625Z,23.60
2022-08-28T10:48:36.614Z,23.60
2022-08-28T10:49:36.605Z,23.61
2022-08-28T10:50:36.595Z,23.60
2022-08-28T10:51:39.472Z,23.60
2022-08-28T10:52:37.571Z,23.60
2022-08-28T10:53:36.564Z,23.60
2022-08-28T10:54:36.552Z,23.60
2022-08-28T10:55:36.700Z,23.60
2022-08-28T10:56:36.531Z,23.58
2022-08-28T10:57:39.691Z,23.60
2022-08-28T10:58:36.513Z,23.60
2022-08-28T10:59:42.370Z,23.60
2022-08-28T11:00:37.487Z,23.60
2022-08-28T11:01:36.569Z,23.61
2022-08-28T11:02:36.529Z,23.60
2022-08-28T11:03:36.486Z,23.61
2022-08-28T11:04:36.444Z,23.63
2022-08-28T11:05:36.438Z,23.61
2022-08-28T11:06:36.426Z,23.61
2022-08-28T11:07:36.419Z,23.60
2022-08-28T11:08:36.435Z,23.60
2022-08-28T11:09:36.392Z,23.60
2022-08-28T11:10:36.384Z,23.60
2022-08-28T11:11:36.374Z,23.60
2022-08-28T11:12:36.362Z,23.61
2022-08-28T11:13:36.406Z,23.61
2022-08-28T11:14:47.901Z,23.60
2022-08-28T11:15:37.730Z,23.61
2022-08-28T11:16:36.389Z,23.61
2022-08-28T11:17:36.363Z,23.60
2022-08-28T11:18:36.336Z,23.63
2022-08-28T11:19:38.682Z,23.61
2022-08-28T11:20:36.306Z,23.63
2022-08-28T11:21:36.281Z,23.61
2022-08-28T11:22:36.256Z,23.61
2022-08-28T11:23:36.249Z,23.61
2022-08-28T11:24:36.236Z,23.61
2022-08-28T11:25:36.272Z,23.61
2022-08-28T11:26:36.239Z,23.63
2022-08-28T11:27:36.308Z,23.63
2022-08-28T11:28:36.196Z,23.63
2022-08-28T11:29:36.184Z,23.63
2022-08-28T11:30:36.231Z,23.65
2022-08-28T11:31:36.284Z,23.66
2022-08-28T11:32:36.180Z,23.68
2022-08-28T11:33:36.140Z,23.68
2022-08-28T11:34:36.128Z,23.69
2022-08-28T11:35:36.119Z,23.69
2022-08-28T11:36:36.105Z,23.69
2022-08-28T11:37:36.166Z,23.70
2022-08-28T11:38:36.117Z,23.70
2022-08-28T11:39:36.078Z,23.70
2022-08-28T11:40:36.131Z,23.70
2022-08-28T11:41:36.057Z,23.70
2022-08-28T11:42:36.045Z,23.70
2022-08-28T11:43:36.061Z,23.70
2022-08-28T11:44:36.022Z,23.70
2022-08-28T11:45:36.011Z,23.69
2022-08-28T11:46:36.008Z,23.70
2022-08-28T11:47:36.039Z,23.69
2022-08-28T11:48:36.012Z,23.70
2022-08-28T11:49:35.974Z,23.70
2022-08-28T11:50:35.956Z,23.70
2022-08-28T11:51:35.948Z,23.69
2022-08-28T11:52:35.942Z,23.69
2022-08-28T11:53:35.980Z,23.69
2022-08-28T11:54:35.912Z,23.69
2022-08-28T11:55:35.908Z,23.70
2022-08-28T11:56:35.898Z,23.69
2022-08-28T11:57:35.887Z,23.68
2022-08-28T11:58:35.873Z,23.66
2022-08-28T11:59:35.906Z,23.69
2022-08-28T12:00:35.851Z,23.68
2022-08-28T12:01:35.844Z,23.68
2022-08-28T12:02:35.897Z,23.69
2022-08-28T12:03:35.819Z,23.68
2022-08-28T12:04:35.934Z,23.68
2022-08-28T12:05:35.799Z,23.68
2022-08-28T12:06:35.786Z,23.68
2022-08-28T12:07:35.781Z,23.68
2022-08-28T12:08:35.766Z,23.68
2022-08-28T12:09:35.775Z,23.68
2022-08-28T12:10:35.773Z,23.68
2022-08-28T12:11:35.737Z,23.66
2022-08-28T12:12:35.863Z,23.68
2022-08-28T12:13:35.712Z,23.68
2022-08-28T12:14:35.701Z,23.66
2022-08-28T12:15:35.757Z,23.68
2022-08-28T12:16:35.679Z,23.68
2022-08-28T12:17:35.668Z,23.66
2022-08-28T12:18:35.657Z,23.68
2022-08-28T12:19:35.647Z,23.66
2022-08-28T12:20:36.669Z,23.66
2022-08-28T12:21:35.629Z,23.66
2022-08-28T12:22:35.722Z,23.66
2022-08-28T12:23:35.607Z,23.68
2022-08-28T12:24:35.593Z,23.68
2022-08-28T12:25:35.614Z,23.68
2022-08-28T12:26:35.572Z,23.66
2022-08-28T12:27:35.562Z,23.68
2022-08-28T12:28:35.574Z,23.66
2022-08-28T12:29:35.545Z,23.66
2022-08-28T12:30:35.568Z,23.69
2022-08-28T12:31:35.522Z,23.66
2022-08-28T12:32:35.636Z,23.66
2022-08-28T12:33:35.546Z,23.68
2022-08-28T12:34:35.488Z,23.66
2022-08-28T12:35:35.482Z,23.68
2022-08-28T12:36:35.467Z,23.68
2022-08-28T12:37:36.901Z,23.68
2022-08-28T12:38:36.478Z,23.68
2022-08-28T12:39:35.467Z,23.68
2022-08-28T12:40:35.529Z,23.68
2022-08-28T12:41:35.423Z,23.69
2022-08-28T12:42:35.406Z,23.68
2022-08-28T12:43:35.394Z,23.68
2022-08-28T12:44:35.415Z,23.68
2022-08-28T12:45:35.514Z,23.69
2022-08-28T12:46:35.443Z,23.69
2022-08-28T12:47:35.353Z,23.68
2022-08-28T12:48:35.340Z,23.68
2022-08-28T12:49:35.332Z,23.70
2022-08-28T12:50:35.349Z,23.69
2022-08-28T12:51:35.339Z,23.69
2022-08-28T12:52:35.299Z,23.69